Time;durP1;ratioP1;P1;durP2;ratioP2;P2;SDS_P1;SDS_P2;PMS_P1;PMS_P2;Temp;Humidity;BMP_temperature;BMP_pressure;BME280_temperature;BME280_humidity;BME280_pressure;Samples;Min_cycle;Max_cycle;Signal;HPM_P1;HPM_P2
2022/07/25 00:00:50;;;;;;;6.15;3.33;;;;;;;;;;5033552;28;20208;-60
2022/07/25 00:03:16;;;;;;;6.90;3.33;;;;;;;;;;5031525;28;20184;-60
2022/07/25 00:05:42;;;;;;;8.40;3.38;;;;;;;;;;5030577;28;20184;-59
2022/07/25 00:08:08;;;;;;;9.18;3.30;;;;;;;;;;5025514;28;20655;-61
2022/07/25 00:10:35;;;;;;;5.75;3.58;;;;;;;;;;5033752;28;20267;-61
2022/07/25 00:13:01;;;;;;;7.88;3.70;;;;;;;;;;5044754;28;20659;-60
2022/07/25 00:15:27;;;;;;;9.73;4.20;;;;;;;;;;5029563;28;20251;-60
2022/07/25 00:17:54;;;;;;;5.32;3.45;;;;;;;;;;5027209;28;20226;-60
2022/07/25 00:20:20;;;;;;;9.00;3.65;;;;;;;;;;5030295;28;20287;-59
2022/07/25 00:22:46;;;;;;;5.50;4.00;;;;;;;;;;5046501;28;20595;-61
2022/07/25 00:25:12;;;;;;;6.05;3.85;;;;;;;;;;5031949;28;20199;-60
2022/07/25 00:27:38;;;;;;;7.22;4.20;;;;;;;;;;5034800;28;20217;-59
2022/07/25 00:30:05;;;;;;;5.32;3.78;;;;;;;;;;5032929;28;20191;-60
2022/07/25 00:32:31;;;;;;;5.32;3.90;;;;;;;;;;5034608;28;20284;-61
2022/07/25 00:34:57;;;;;;;5.75;3.78;;;;;;;;;;5032027;28;20198;-60
2022/07/25 00:37:23;;;;;;;5.70;3.58;;;;;;;;;;5030957;28;20247;-61
2022/07/25 00:39:49;;;;;;;7.00;3.83;;;;;;;;;;5032654;28;20184;-60
2022/07/25 00:42:16;;;;;;;6.50;3.33;;;;;;;;;;5031456;28;20494;-60
2022/07/25 00:44:42;;;;;;;5.35;3.42;;;;;;;;;;5046074;28;20708;-60
2022/07/25 00:47:08;;;;;;;5.50;3.53;;;;;;;;;;5030071;28;20692;-60
2022/07/25 00:49:34;;;;;;;5.07;3.50;;;;;;;;;;5044715;28;20191;-60
2022/07/25 00:52:00;;;;;;;5.45;3.80;;;;;;;;;;5052912;28;20178;-60
2022/07/25 00:54:26;;;;;;;8.93;3.72;;;;;;;;;;5032413;28;20191;-60
2022/07/25 00:56:52;;;;;;;4.88;3.65;;;;;;;;;;5032789;28;20683;-61
2022/07/25 00:59:19;;;;;;;7.45;3.88;;;;;;;;;;5036370;28;20569;-60
2022/07/25 01:01:46;;;;;;;4.88;3.80;;;;;;;;;;5027826;28;20626;-60
2022/07/25 01:04:13;;;;;;;6.25;3.60;;;;;;;;;;5024966;28;20188;-60
2022/07/25 01:06:39;;;;;;;6.90;3.60;;;;;;;;;;5032435;28;20200;-60
2022/07/25 01:09:06;;;;;;;6.82;3.45;;;;;;;;;;5029457;28;20184;-60
2022/07/25 01:11:32;;;;;;;4.63;3.55;;;;;;;;;;5018958;28;20195;-60
2022/07/25 01:13:58;;;;;;;5.70;4.00;;;;;;;;;;5037707;28;20670;-61
2022/07/25 01:16:24;;;;;;;6.55;3.88;;;;;;;;;;5031241;28;20188;-60
2022/07/25 01:18:51;;;;;;;7.78;3.72;;;;;;;;;;5021537;28;20191;-60
2022/07/25 01:21:17;;;;;;;6.45;4.10;;;;;;;;;;5045609;28;20187;-60
2022/07/25 01:23:43;;;;;;;5.45;3.60;;;;;;;;;;5031110;28;20192;-61
2022/07/25 01:26:09;;;;;;;6.03;3.90;;;;;;;;;;5032037;28;20674;-60
2022/07/25 01:28:35;;;;;;;5.35;3.85;;;;;;;;;;5039848;28;20647;-60
2022/07/25 01:31:01;;;;;;;5.80;4.28;;;;;;;;;;5050497;28;20219;-61
2022/07/25 01:33:27;;;;;;;7.38;4.18;;;;;;;;;;5042813;28;20203;-61
2022/07/25 01:35:53;;;;;;;6.90;4.50;;;;;;;;;;5030592;28;20243;-61
2022/07/25 01:38:20;;;;;;;8.00;4.93;;;;;;;;;;5045242;28;20315;-61
2022/07/25 01:40:46;;;;;;;9.77;4.85;;;;;;;;;;5030244;28;20192;-62
2022/07/25 01:43:13;;;;;;;7.70;4.65;;;;;;;;;;5030446;28;20192;-60
2022/07/25 01:45:39;;;;;;;9.38;5.18;;;;;;;;;;5030097;28;20191;-60
2022/07/25 01:48:05;;;;;;;7.60;4.30;;;;;;;;;;5043902;28;20299;-60
2022/07/25 01:50:31;;;;;;;6.25;4.47;;;;;;;;;;5034764;28;20179;-61
2022/07/25 01:52:58;;;;;;;7.60;4.70;;;;;;;;;;5047351;28;20246;-60
2022/07/25 01:55:24;;;;;;;10.38;4.65;;;;;;;;;;5032731;28;20733;-61
2022/07/25 01:57:50;;;;;;;7.20;4.63;;;;;;;;;;5034333;28;20168;-61
2022/07/25 02:00:17;;;;;;;9.13;4.85;;;;;;;;;;5030526;28;20179;-61
2022/07/25 02:02:44;;;;;;;9.02;5.10;;;;;;;;;;5042078;28;20223;-62
2022/07/25 02:05:11;;;;;;;6.85;4.80;;;;;;;;;;5019854;28;20184;-61
2022/07/25 02:07:37;;;;;;;8.88;4.97;;;;;;;;;;5032671;28;20264;-60
2022/07/25 02:10:05;;;;;;;7.72;5.05;;;;;;;;;;5035278;28;20192;-62
2022/07/25 02:12:31;;;;;;;6.40;5.00;;;;;;;;;;5043480;28;20180;-61
2022/07/25 02:14:57;;;;;;;7.97;4.60;;;;;;;;;;5048656;28;20188;-61
2022/07/25 02:17:24;;;;;;;6.10;4.65;;;;;;;;;;5035278;28;20198;-62
2022/07/25 02:19:50;;;;;;;9.25;4.82;;;;;;;;;;5032246;28;20187;-60
2022/07/25 02:22:16;;;;;;;5.82;4.63;;;;;;;;;;5035602;28;20213;-59
2022/07/25 02:24:43;;;;;;;8.05;4.60;;;;;;;;;;5035939;28;20211;-60
2022/07/25 02:27:09;;;;;;;7.15;4.53;;;;;;;;;;5035214;28;20687;-60
2022/07/25 02:29:36;;;;;;;8.77;4.78;;;;;;;;;;5033864;28;20192;-61
2022/07/25 02:32:02;;;;;;;10.63;5.00;;;;;;;;;;5033059;28;20172;-60
2022/07/25 02:34:28;;;;;;;7.32;4.78;;;;;;;;;;5048181;28;20180;-61
2022/07/25 02:36:54;;;;;;;6.70;4.70;;;;;;;;;;5038308;28;20227;-61
2022/07/25 02:39:20;;;;;;;6.43;4.57;;;;;;;;;;5038640;28;20188;-60
2022/07/25 02:41:47;;;;;;;5.93;4.40;;;;;;;;;;5032541;28;20253;-60
2022/07/25 02:44:13;;;;;;;7.80;5.07;;;;;;;;;;5031741;28;20226;-60
2022/07/25 02:46:39;;;;;;;4.88;4.05;;;;;;;;;;5033528;28;20196;-61
2022/07/25 02:49:05;;;;;;;7.50;4.55;;;;;;;;;;5033463;28;20207;-60
2022/07/25 02:51:31;;;;;;;6.65;3.90;;;;;;;;;;5049920;28;20644;-60
2022/07/25 02:53:57;;;;;;;9.05;4.43;;;;;;;;;;5039852;28;20191;-60
2022/07/25 02:56:23;;;;;;;5.43;4.10;;;;;;;;;;5040735;28;20199;-61
2022/07/25 02:58:50;;;;;;;6.32;4.22;;;;;;;;;;5033951;28;20203;-62
2022/07/25 03:01:16;;;;;;;6.03;4.63;;;;;;;;;;5035255;28;20188;-61
2022/07/25 03:03:42;;;;;;;6.90;4.35;;;;;;;;;;5031056;28;20263;-61
2022/07/25 03:06:08;;;;;;;6.85;4.60;;;;;;;;;;5053585;28;20237;-61
2022/07/25 03:08:35;;;;;;;5.88;4.47;;;;;;;;;;5043104;28;20207;-60
2022/07/25 03:11:01;;;;;;;8.40;4.63;;;;;;;;;;5033730;28;20713;-61
2022/07/25 03:13:27;;;;;;;8.40;4.30;;;;;;;;;;5032372;28;20592;-61
2022/07/25 03:15:53;;;;;;;6.72;4.70;;;;;;;;;;5045590;28;20183;-61
2022/07/25 03:18:19;;;;;;;6.25;4.47;;;;;;;;;;5033901;28;20188;-61
2022/07/25 03:20:45;;;;;;;7.45;5.10;;;;;;;;;;5034198;28;20664;-61
2022/07/25 03:23:12;;;;;;;6.93;4.50;;;;;;;;;;5031639;28;20180;-61
2022/07/25 03:25:38;;;;;;;7.47;4.50;;;;;;;;;;5032076;28;20188;-62
2022/07/25 03:28:04;;;;;;;5.93;4.57;;;;;;;;;;5032775;28;20215;-62
2022/07/25 03:30:30;;;;;;;6.70;4.90;;;;;;;;;;5049572;28;20592;-61
2022/07/25 03:32:57;;;;;;;7.22;4.45;;;;;;;;;;5046847;28;20192;-63
2022/07/25 03:35:24;;;;;;;6.32;4.85;;;;;;;;;;5036593;28;20191;-62
2022/07/25 03:37:51;;;;;;;6.70;5.10;;;;;;;;;;5032200;28;20237;-61
2022/07/25 03:40:17;;;;;;;7.88;4.70;;;;;;;;;;5049516;28;20674;-61
2022/07/25 03:42:44;;;;;;;7.35;4.88;;;;;;;;;;5029935;28;20248;-61
2022/07/25 03:45:10;;;;;;;6.15;4.63;;;;;;;;;;5033519;28;20183;-60
2022/07/25 03:47:36;;;;;;;6.57;4.78;;;;;;;;;;5037242;28;20695;-60
2022/07/25 03:50:02;;;;;;;11.75;5.00;;;;;;;;;;5033473;28;20333;-60
2022/07/25 03:52:28;;;;;;;9.10;4.82;;;;;;;;;;5034232;28;20249;-60
2022/07/25 03:54:54;;;;;;;7.03;4.60;;;;;;;;;;5031772;28;20199;-61
2022/07/25 03:57:21;;;;;;;7.28;4.65;;;;;;;;;;5037890;28;20187;-60
2022/07/25 03:59:47;;;;;;;8.02;4.50;;;;;;;;;;5032119;28;20286;-60
2022/07/25 04:02:13;;;;;;;5.13;4.30;;;;;;;;;;5033175;28;20258;-61
2022/07/25 04:04:39;;;;;;;8.77;4.63;;;;;;;;;;5046083;28;20190;-61
2022/07/25 04:07:05;;;;;;;6.55;4.20;;;;;;;;;;5031901;28;20218;-59
2022/07/25 04:09:31;;;;;;;6.13;4.10;;;;;;;;;;5035776;28;20215;-60
2022/07/25 04:11:57;;;;;;;6.43;4.25;;;;;;;;;;5033099;28;20683;-61
2022/07/25 04:14:23;;;;;;;5.60;4.00;;;;;;;;;;5029205;28;20651;-60
2022/07/25 04:16:49;;;;;;;7.18;3.97;;;;;;;;;;5030878;28;20188;-60
2022/07/25 04:19:16;;;;;;;5.45;3.95;;;;;;;;;;5029017;28;20700;-60
2022/07/25 04:21:42;;;;;;;8.07;4.00;;;;;;;;;;5033265;28;20186;-60
2022/07/25 04:24:08;;;;;;;9.73;3.95;;;;;;;;;;5031220;28;20214;-61
2022/07/25 04:26:34;;;;;;;5.78;3.75;;;;;;;;;;5033435;28;20269;-62
2022/07/25 04:29:02;;;;;;;8.48;3.90;;;;;;;;;;5031544;28;20234;-61
2022/07/25 04:31:28;;;;;;;15.40;3.70;;;;;;;;;;5032661;28;20195;-60
2022/07/25 04:33:54;;;;;;;6.00;4.03;;;;;;;;;;5030314;28;20176;-61
2022/07/25 04:36:21;;;;;;;7.70;4.20;;;;;;;;;;5031053;28;20223;-62
2022/07/25 04:38:48;;;;;;;12.25;3.75;;;;;;;;;;5045719;28;20207;-61
2022/07/25 04:41:14;;;;;;;5.60;3.28;;;;;;;;;;5049863;28;20223;-61
2022/07/25 04:43:40;;;;;;;5.90;3.70;;;;;;;;;;5030362;28;20188;-61
2022/07/25 04:46:06;;;;;;;9.07;3.80;;;;;;;;;;5031175;28;20233;-61
2022/07/25 04:48:33;;;;;;;9.43;3.70;;;;;;;;;;5028649;28;20192;-61
2022/07/25 04:50:59;;;;;;;5.70;3.60;;;;;;;;;;5042354;28;20192;-61
2022/07/25 04:53:25;;;;;;;6.90;3.50;;;;;;;;;;5027034;28;20374;-63
2022/07/25 04:55:51;;;;;;;6.53;3.53;;;;;;;;;;5031769;28;20176;-63
2022/07/25 04:58:17;;;;;;;7.65;3.47;;;;;;;;;;5029761;28;20184;-63
2022/07/25 05:00:44;;;;;;;6.38;3.08;;;;;;;;;;5029693;28;20191;-62
2022/07/25 05:03:11;;;;;;;6.93;3.88;;;;;;;;;;5030166;28;20180;-62
2022/07/25 05:05:37;;;;;;;5.75;3.13;;;;;;;;;;5035228;28;20249;-63
2022/07/25 05:08:03;;;;;;;5.10;2.88;;;;;;;;;;5045450;28;20310;-63
2022/07/25 05:10:29;;;;;;;4.45;2.72;;;;;;;;;;5032348;28;20195;-62
2022/07/25 05:12:56;;;;;;;6.30;2.80;;;;;;;;;;5031356;28;20188;-62
2022/07/25 05:15:22;;;;;;;5.72;2.60;;;;;;;;;;5032089;28;20184;-60
2022/07/25 05:17:48;;;;;;;4.10;2.40;;;;;;;;;;5034310;28;20206;-62
2022/07/25 05:20:15;;;;;;;6.95;2.17;;;;;;;;;;5032283;28;20176;-61
2022/07/25 05:22:41;;;;;;;4.82;2.20;;;;;;;;;;5031252;28;20658;-61
2022/07/25 05:25:08;;;;;;;6.75;2.08;;;;;;;;;;5032099;28;20214;-63
2022/07/25 05:27:35;;;;;;;3.97;2.03;;;;;;;;;;5039734;28;20202;-61
2022/07/25 05:30:01;;;;;;;3.03;1.92;;;;;;;;;;5034198;28;20184;-62
2022/07/25 05:32:27;;;;;;;7.28;2.05;;;;;;;;;;5033397;28;20206;-61
2022/07/25 05:34:53;;;;;;;3.30;2.00;;;;;;;;;;5037271;28;20236;-62
2022/07/25 05:37:19;;;;;;;5.32;1.90;;;;;;;;;;5035620;28;20224;-62
2022/07/25 05:39:45;;;;;;;2.97;1.75;;;;;;;;;;5034231;28;20548;-62
2022/07/25 05:42:12;;;;;;;7.45;1.75;;;;;;;;;;5036674;28;20636;-61
2022/07/25 05:44:38;;;;;;;12.07;2.00;;;;;;;;;;5037549;28;20184;-62
2022/07/25 05:47:08;;;;;;;4.45;2.10;;;;;;;;;;5032901;28;20217;-62
2022/07/25 05:49:34;;;;;;;5.70;1.92;;;;;;;;;;5033882;28;20605;-62
2022/07/25 05:52:00;;;;;;;4.35;1.70;;;;;;;;;;5035736;28;20666;-62
2022/07/25 05:54:26;;;;;;;5.68;2.20;;;;;;;;;;5047131;28;20210;-61
2022/07/25 05:56:53;;;;;;;6.13;2.22;;;;;;;;;;5034804;28;20246;-62
2022/07/25 05:59:19;;;;;;;5.70;2.10;;;;;;;;;;5033774;28;20180;-63
2022/07/25 06:01:45;;;;;;;4.57;2.28;;;;;;;;;;5034376;28;20698;-63
2022/07/25 06:04:11;;;;;;;9.02;2.50;;;;;;;;;;5034109;28;20183;-61
2022/07/25 06:06:37;;;;;;;4.22;1.85;;;;;;;;;;5035506;28;20675;-62
2022/07/25 06:09:05;;;;;;;5.35;1.83;;;;;;;;;;5036002;28;20187;-64
2022/07/25 06:11:31;;;;;;;5.47;2.20;;;;;;;;;;5051896;28;20179;-67
2022/07/25 06:13:58;;;;;;;7.95;2.10;;;;;;;;;;5041420;28;20632;-62
2022/07/25 06:16:24;;;;;;;8.77;2.13;;;;;;;;;;5043486;28;20238;-60
2022/07/25 06:18:51;;;;;;;7.75;2.00;;;;;;;;;;5033564;28;20208;-60
2022/07/25 06:21:17;;;;;;;5.18;1.90;;;;;;;;;;5033229;28;20188;-60
2022/07/25 06:23:44;;;;;;;9.40;2.45;;;;;;;;;;5033133;28;20187;-60
2022/07/25 06:26:10;;;;;;;6.25;2.20;;;;;;;;;;5032767;28;20211;-61
2022/07/25 06:28:37;;;;;;;9.40;2.30;;;;;;;;;;5032888;28;20207;-60
2022/07/25 06:31:03;;;;;;;10.98;2.80;;;;;;;;;;5034322;28;20184;-61
2022/07/25 06:33:29;;;;;;;12.00;2.40;;;;;;;;;;5033905;28;20214;-61
2022/07/25 06:35:55;;;;;;;15.48;2.72;;;;;;;;;;5033110;28;20220;-58
2022/07/25 06:38:22;;;;;;;15.48;2.97;;;;;;;;;;5041210;28;20188;-61
2022/07/25 06:40:48;;;;;;;10.25;2.55;;;;;;;;;;5034796;28;20271;-62
2022/07/25 06:43:14;;;;;;;13.15;3.30;;;;;;;;;;5031717;28;20538;-63
2022/07/25 06:45:45;;;;;;;13.27;2.80;;;;;;;;;;5034768;28;20186;-61
2022/07/25 06:48:12;;;;;;;13.25;2.90;;;;;;;;;;5039664;28;20215;-60
2022/07/25 06:50:38;;;;;;;11.23;2.88;;;;;;;;;;5049188;28;20643;-62
2022/07/25 06:53:04;;;;;;;9.73;2.83;;;;;;;;;;5031895;28;20192;-63
2022/07/25 06:55:30;;;;;;;13.43;2.80;;;;;;;;;;5034504;28;20176;-63
2022/07/25 06:57:56;;;;;;;13.27;2.83;;;;;;;;;;5030788;28;20655;-62
2022/07/25 07:00:22;;;;;;;13.35;3.03;;;;;;;;;;5032130;28;20180;-63
2022/07/25 07:02:51;;;;;;;14.05;2.95;;;;;;;;;;5015339;28;20198;-64
2022/07/25 07:05:17;;;;;;;17.30;2.78;;;;;;;;;;5032371;28;20262;-63
2022/07/25 07:07:44;;;;;;;14.88;2.80;;;;;;;;;;5030438;28;20293;-62
2022/07/25 07:10:10;;;;;;;10.80;2.65;;;;;;;;;;5033010;28;20610;-62
2022/07/25 07:12:36;;;;;;;14.40;2.92;;;;;;;;;;5033656;28;20188;-61
2022/07/25 07:15:02;;;;;;;8.07;2.53;;;;;;;;;;5033203;28;20211;-63
2022/07/25 07:17:28;;;;;;;10.88;2.40;;;;;;;;;;5034232;28;20230;-62
2022/07/25 07:19:54;;;;;;;14.93;2.72;;;;;;;;;;5042697;28;20262;-63
2022/07/25 07:22:20;;;;;;;12.85;2.88;;;;;;;;;;5037015;28;20671;-62
2022/07/25 07:24:46;;;;;;;11.07;2.60;;;;;;;;;;5031228;28;20180;-62
2022/07/25 07:27:13;;;;;;;8.27;2.20;;;;;;;;;;5049607;28;20269;-63
2022/07/25 07:29:39;;;;;;;10.40;2.30;;;;;;;;;;5043692;28;20192;-63
2022/07/25 07:32:05;;;;;;;9.63;2.47;;;;;;;;;;5045526;28;20203;-59
2022/07/25 07:34:32;;;;;;;7.57;2.53;;;;;;;;;;5030573;28;20222;-62
2022/07/25 07:36:58;;;;;;;12.45;2.42;;;;;;;;;;5033377;28;20227;-64
2022/07/25 07:39:25;;;;;;;10.68;2.53;;;;;;;;;;5036073;28;20195;-62
2022/07/25 07:41:51;;;;;;;8.95;2.00;;;;;;;;;;5032646;28;20192;-62
2022/07/25 07:44:18;;;;;;;8.07;2.50;;;;;;;;;;5030913;28;20237;-62
2022/07/25 07:46:44;;;;;;;9.90;2.38;;;;;;;;;;5032125;28;20214;-62
2022/07/25 07:49:11;;;;;;;5.53;2.20;;;;;;;;;;5031260;28;20671;-62
2022/07/25 07:51:37;;;;;;;11.80;2.15;;;;;;;;;;5053606;28;20611;-63
2022/07/25 07:56:47;;;;;;;8.65;2.22;;;;;;;;;;5031118;28;20676;-64
2022/07/25 07:59:14;;;;;;;8.80;2.15;;;;;;;;;;5029831;28;20219;-61
2022/07/25 08:01:40;;;;;;;7.55;2.03;;;;;;;;;;5036292;28;20269;-62
2022/07/25 08:04:06;;;;;;;8.27;2.42;;;;;;;;;;5031450;28;20682;-62
2022/07/25 08:06:32;;;;;;;13.35;2.20;;;;;;;;;;5032766;28;20242;-62
2022/07/25 08:08:59;;;;;;;9.40;2.25;;;;;;;;;;5036737;28;20176;-66
2022/07/25 08:11:25;;;;;;;6.80;2.03;;;;;;;;;;5034784;28;20222;-65
2022/07/25 08:13:51;;;;;;;8.32;2.60;;;;;;;;;;5032520;28;20195;-66
2022/07/25 08:16:17;;;;;;;9.02;2.47;;;;;;;;;;5032019;28;20258;-66
2022/07/25 08:18:43;;;;;;;7.85;2.33;;;;;;;;;;5046587;28;20586;-63
2022/07/25 08:21:10;;;;;;;12.00;2.75;;;;;;;;;;5030185;28;20184;-66
2022/07/25 08:23:37;;;;;;;6.00;2.20;;;;;;;;;;5029978;28;20193;-67
2022/07/25 08:26:04;;;;;;;8.00;2.25;;;;;;;;;;5032902;28;20195;-62
2022/07/25 08:28:31;;;;;;;10.43;2.55;;;;;;;;;;5046416;28;20183;-62
2022/07/25 08:30:59;;;;;;;10.52;1.92;;;;;;;;;;5048302;28;20195;-64
2022/07/25 08:33:25;;;;;;;10.73;2.25;;;;;;;;;;5029851;28;20184;-64
2022/07/25 08:35:53;;;;;;;11.05;2.13;;;;;;;;;;5046215;28;20186;-65
2022/07/25 08:38:21;;;;;;;8.55;2.35;;;;;;;;;;5039213;28;20314;-64
2022/07/25 08:40:47;;;;;;;13.60;3.17;;;;;;;;;;5048012;28;20670;-65
2022/07/25 08:43:14;;;;;;;10.15;2.40;;;;;;;;;;5030831;28;20258;-64
2022/07/25 08:45:50;;;;;;;9.50;2.25;;;;;;;;;;5031562;28;20211;-65
2022/07/25 08:48:18;;;;;;;15.18;2.70;;;;;;;;;;5029421;28;20215;-64
2022/07/25 08:50:44;;;;;;;11.75;2.70;;;;;;;;;;5032750;28;20230;-65
2022/07/25 08:53:10;;;;;;;11.57;2.50;;;;;;;;;;5030114;28;20183;-66
2022/07/25 08:55:36;;;;;;;14.75;2.97;;;;;;;;;;5048174;28;20535;-65
2022/07/25 08:58:03;;;;;;;13.82;2.88;;;;;;;;;;5031129;28;20230;-65
2022/07/25 09:00:29;;;;;;;11.02;2.60;;;;;;;;;;5062869;28;20191;-65
2022/07/25 09:02:56;;;;;;;12.57;2.80;;;;;;;;;;5029704;28;20612;-65
2022/07/25 09:05:23;;;;;;;10.45;2.70;;;;;;;;;;5048141;28;20657;-63
2022/07/25 09:07:50;;;;;;;11.25;2.75;;;;;;;;;;5033014;28;20215;-64
2022/07/25 09:10:22;;;;;;;12.35;3.10;;;;;;;;;;5050627;28;20264;-62
2022/07/25 09:12:56;;;;;;;10.30;2.80;;;;;;;;;;5034637;28;20693;-61
2022/07/25 09:15:32;;;;;;;10.85;2.72;;;;;;;;;;5046167;28;20180;-62
2022/07/25 09:18:04;;;;;;;11.60;2.90;;;;;;;;;;5048543;28;20659;-64
2022/07/25 09:20:37;;;;;;;10.27;3.00;;;;;;;;;;5036210;28;20180;-63
2022/07/25 09:23:04;;;;;;;14.60;3.05;;;;;;;;;;5033314;28;20652;-62
2022/07/25 09:25:30;;;;;;;11.18;2.80;;;;;;;;;;5022978;28;20283;-62
2022/07/25 09:28:08;;;;;;;12.27;3.22;;;;;;;;;;5032399;28;20208;-62
2022/07/25 09:30:35;;;;;;;12.90;3.33;;;;;;;;;;5035686;28;20190;-62
2022/07/25 09:33:01;;;;;;;8.73;2.90;;;;;;;;;;5033881;28;20195;-62
2022/07/25 09:35:32;;;;;;;15.40;3.00;;;;;;;;;;5034489;28;20573;-63
2022/07/25 09:38:08;;;;;;;16.90;3.10;;;;;;;;;;5055745;28;20278;-62
2022/07/25 09:40:35;;;;;;;10.20;2.85;;;;;;;;;;5041786;28;20206;-62
2022/07/25 09:43:01;;;;;;;12.20;3.17;;;;;;;;;;5032211;28;20185;-62
2022/07/25 09:45:27;;;;;;;16.63;3.22;;;;;;;;;;5034925;28;20192;-63
2022/07/25 09:47:57;;;;;;;14.52;3.03;;;;;;;;;;5031996;28;20243;-62
2022/07/25 09:50:24;;;;;;;16.90;2.92;;;;;;;;;;5043607;28;20187;-63
2022/07/25 09:52:53;;;;;;;14.23;2.90;;;;;;;;;;5051310;28;20176;-64
2022/07/25 09:55:20;;;;;;;17.75;3.25;;;;;;;;;;5035342;28;20184;-62
2022/07/25 09:57:47;;;;;;;11.60;2.97;;;;;;;;;;5049032;28;20286;-62
2022/07/25 10:00:15;;;;;;;12.63;3.15;;;;;;;;;;5036025;28;20204;-62
2022/07/25 10:02:45;;;;;;;14.45;3.25;;;;;;;;;;5050302;28;20235;-62
2022/07/25 10:05:15;;;;;;;14.55;3.72;;;;;;;;;;5025851;28;20215;-63
2022/07/25 10:07:45;;;;;;;13.13;3.25;;;;;;;;;;5033172;28;20215;-62
2022/07/25 10:10:20;;;;;;;10.63;3.47;;;;;;;;;;5026280;28;20184;-62
2022/07/25 10:12:58;;;;;;;13.02;3.55;;;;;;;;;;5033977;28;20207;-61
2022/07/25 10:15:24;;;;;;;16.73;3.10;;;;;;;;;;5021466;28;20199;-63
2022/07/25 10:18:01;;;;;;;8.55;3.03;;;;;;;;;;5032966;28;20176;-63
2022/07/25 10:20:28;;;;;;;14.75;3.38;;;;;;;;;;5045619;28;20667;-61
2022/07/25 10:22:54;;;;;;;21.38;4.22;;;;;;;;;;5034058;28;20192;-61
2022/07/25 10:25:20;;;;;;;15.00;3.42;;;;;;;;;;5031921;28;20215;-61
2022/07/25 10:27:47;;;;;;;20.42;3.90;;;;;;;;;;5033340;28;20204;-61
2022/07/25 10:30:22;;;;;;;14.82;3.63;;;;;;;;;;5034023;28;20699;-61
2022/07/25 10:32:57;;;;;;;14.63;4.07;;;;;;;;;;5033188;28;20663;-62
2022/07/25 10:35:24;;;;;;;12.98;3.83;;;;;;;;;;5033841;28;20180;-64
2022/07/25 10:37:51;;;;;;;14.23;3.38;;;;;;;;;;5046606;28;20227;-60
2022/07/25 10:40:36;;;;;;;14.55;3.60;;;;;;;;;;5049164;28;20205;-61
2022/07/25 10:43:05;;;;;;;15.02;4.15;;;;;;;;;;5033337;28;20180;-61
2022/07/25 10:45:50;;;;;;;13.25;3.30;;;;;;;;;;5032608;28;20207;-63
2022/07/25 10:48:21;;;;;;;19.77;3.30;;;;;;;;;;5030500;28;20215;-63
2022/07/25 10:50:48;;;;;;;15.93;3.70;;;;;;;;;;5033589;28;20184;-62
2022/07/25 10:53:14;;;;;;;18.63;4.20;;;;;;;;;;5026607;28;20191;-64
2022/07/25 10:55:41;;;;;;;12.15;3.20;;;;;;;;;;5030046;28;20181;-62
2022/07/25 10:58:07;;;;;;;13.38;3.60;;;;;;;;;;5017566;28;20211;-61
2022/07/25 11:00:33;;;;;;;16.38;3.63;;;;;;;;;;5034543;28;20180;-65
2022/07/25 11:03:00;;;;;;;15.27;3.50;;;;;;;;;;5031564;28;20633;-62
2022/07/25 11:05:28;;;;;;;13.18;3.55;;;;;;;;;;5050647;28;20187;-62
2022/07/25 11:07:55;;;;;;;17.52;3.92;;;;;;;;;;5015466;28;20270;-61
2022/07/25 11:10:27;;;;;;;14.38;3.55;;;;;;;;;;5034325;28;20510;-60
2022/07/25 11:12:54;;;;;;;14.45;3.78;;;;;;;;;;5047541;28;20448;-60
2022/07/25 11:15:22;;;;;;;12.27;3.33;;;;;;;;;;5047970;28;20639;-62
2022/07/25 11:17:49;;;;;;;16.15;3.63;;;;;;;;;;5033106;28;20271;-60
2022/07/25 11:20:17;;;;;;;13.27;3.50;;;;;;;;;;5047926;28;20636;-61
2022/07/25 11:22:50;;;;;;;14.25;3.53;;;;;;;;;;5032513;28;20190;-61
2022/07/25 11:25:16;;;;;;;16.30;3.53;;;;;;;;;;5043156;28;20182;-60
2022/07/25 11:27:43;;;;;;;15.43;3.45;;;;;;;;;;5051059;28;20211;-60
2022/07/25 11:30:20;;;;;;;13.85;3.53;;;;;;;;;;5033096;28;20196;-60
2022/07/25 11:32:53;;;;;;;14.55;3.50;;;;;;;;;;5047605;28;20180;-60
2022/07/25 11:35:26;;;;;;;17.45;4.10;;;;;;;;;;5055324;28;20329;-61
2022/07/25 11:37:53;;;;;;;14.07;3.67;;;;;;;;;;5016090;28;20231;-62
2022/07/25 11:40:20;;;;;;;21.67;4.07;;;;;;;;;;5032792;28;20643;-62
2022/07/25 11:42:54;;;;;;;12.55;3.38;;;;;;;;;;5033922;28;20184;-63
2022/07/25 11:45:21;;;;;;;20.30;4.05;;;;;;;;;;5034991;28;20635;-63
2022/07/25 11:48:03;;;;;;;16.80;4.00;;;;;;;;;;5053304;28;20207;-62
2022/07/25 11:50:30;;;;;;;23.33;4.03;;;;;;;;;;5031123;28;20180;-62
2022/07/25 11:53:00;;;;;;;21.23;3.75;;;;;;;;;;5032831;28;20211;-63
2022/07/25 11:55:30;;;;;;;17.75;4.10;;;;;;;;;;5030007;28;20433;-62
2022/07/25 11:58:00;;;;;;;14.48;3.75;;;;;;;;;;5053559;28;20174;-62
2022/07/25 12:00:28;;;;;;;18.98;3.60;;;;;;;;;;5039746;28;20644;-63
2022/07/25 12:02:54;;;;;;;16.70;3.42;;;;;;;;;;5032330;28;20187;-62
2022/07/25 12:05:22;;;;;;;19.83;3.47;;;;;;;;;;5030261;28;20257;-64
2022/07/25 12:07:48;;;;;;;14.18;2.80;;;;;;;;;;5046975;28;20683;-63
2022/07/25 12:10:19;;;;;;;10.27;3.05;;;;;;;;;;5034402;28;20191;-62
2022/07/25 12:12:52;;;;;;;14.25;3.58;;;;;;;;;;5032363;28;20628;-63
2022/07/25 12:15:29;;;;;;;13.05;2.60;;;;;;;;;;5031553;28;20194;-60
2022/07/25 12:17:56;;;;;;;10.85;3.22;;;;;;;;;;5033336;28;20179;-61
2022/07/25 12:20:24;;;;;;;18.33;2.85;;;;;;;;;;5032373;28;20211;-61
2022/07/25 12:22:51;;;;;;;14.13;3.22;;;;;;;;;;5030963;28;20541;-62
2022/07/25 12:25:17;;;;;;;13.35;3.50;;;;;;;;;;5043209;28;20683;-62
2022/07/25 12:27:44;;;;;;;17.45;3.40;;;;;;;;;;5033205;28;20219;-60
2022/07/25 12:30:10;;;;;;;14.80;3.25;;;;;;;;;;5030319;28;20183;-60
2022/07/25 12:32:37;;;;;;;18.75;3.72;;;;;;;;;;5030840;28;20176;-60
2022/07/25 12:35:04;;;;;;;15.77;3.63;;;;;;;;;;5036871;28;20198;-60
2022/07/25 12:37:31;;;;;;;13.73;3.22;;;;;;;;;;5029623;28;20253;-61
2022/07/25 12:39:58;;;;;;;16.38;3.35;;;;;;;;;;5041377;28;20206;-60
2022/07/25 12:42:24;;;;;;;13.73;3.65;;;;;;;;;;5032913;28;20191;-61
2022/07/25 12:44:51;;;;;;;13.73;3.63;;;;;;;;;;5040065;28;20211;-62
2022/07/25 12:47:17;;;;;;;11.77;2.88;;;;;;;;;;5030702;28;20580;-61
2022/07/25 12:49:43;;;;;;;27.83;3.78;;;;;;;;;;5046509;28;20179;-60
2022/07/25 12:52:09;;;;;;;23.95;3.67;;;;;;;;;;5032398;28;20184;-59
2022/07/25 12:54:35;;;;;;;11.48;3.50;;;;;;;;;;5040299;28;20278;-60
2022/07/25 12:57:02;;;;;;;26.85;3.70;;;;;;;;;;5031861;28;20200;-61
2022/07/25 12:59:28;;;;;;;12.48;3.55;;;;;;;;;;5031459;28;20542;-60
2022/07/25 13:01:54;;;;;;;13.32;3.20;;;;;;;;;;5029947;28;20219;-60
2022/07/25 13:04:20;;;;;;;13.38;3.30;;;;;;;;;;5029367;28;20644;-60
2022/07/25 13:06:46;;;;;;;12.95;3.35;;;;;;;;;;5028967;28;20246;-60
2022/07/25 13:09:13;;;;;;;10.82;2.35;;;;;;;;;;5047881;28;20194;-60
2022/07/25 13:11:39;;;;;;;19.92;3.00;;;;;;;;;;5032253;28;20211;-61
2022/07/25 13:14:05;;;;;;;18.05;3.25;;;;;;;;;;5049770;28;20184;-60
2022/07/25 13:16:33;;;;;;;18.85;2.92;;;;;;;;;;5039319;28;20189;-59
2022/07/25 13:18:59;;;;;;;26.83;3.67;;;;;;;;;;5030786;28;20236;-60
2022/07/25 13:21:26;;;;;;;19.83;3.92;;;;;;;;;;5029095;28;20526;-60
2022/07/25 13:23:52;;;;;;;11.63;3.05;;;;;;;;;;5052422;28;20696;-61
2022/07/25 13:26:18;;;;;;;11.45;2.70;;;;;;;;;;5036110;28;20184;-61
2022/07/25 13:28:45;;;;;;;14.38;2.65;;;;;;;;;;5032713;28;20179;-60
2022/07/25 13:31:11;;;;;;;14.57;2.97;;;;;;;;;;5046425;28;20285;-61
2022/07/25 13:33:37;;;;;;;15.15;2.50;;;;;;;;;;5044197;28;20184;-60
2022/07/25 13:36:03;;;;;;;13.60;3.30;;;;;;;;;;5026931;28;20577;-60
2022/07/25 13:38:29;;;;;;;10.55;2.78;;;;;;;;;;5030289;28;20270;-62
2022/07/25 13:40:56;;;;;;;20.08;2.97;;;;;;;;;;5030852;28;20199;-61
2022/07/25 13:43:22;;;;;;;14.20;3.33;;;;;;;;;;5032235;28;20667;-64
2022/07/25 13:45:48;;;;;;;20.17;3.28;;;;;;;;;;5030939;28;20176;-62
2022/07/25 13:48:14;;;;;;;18.85;3.33;;;;;;;;;;5027974;28;20223;-61
2022/07/25 13:50:41;;;;;;;15.60;3.10;;;;;;;;;;5047018;28;20187;-62
2022/07/25 13:53:07;;;;;;;15.20;3.33;;;;;;;;;;5035226;28;20227;-61
2022/07/25 13:55:33;;;;;;;11.75;2.65;;;;;;;;;;5032393;28;20612;-60
2022/07/25 13:57:59;;;;;;;9.90;2.38;;;;;;;;;;5049653;28;20280;-61
2022/07/25 14:00:25;;;;;;;14.43;2.45;;;;;;;;;;5038954;28;20629;-62
2022/07/25 14:02:52;;;;;;;17.77;3.05;;;;;;;;;;5034808;28;20180;-63
2022/07/25 14:05:18;;;;;;;10.85;2.60;;;;;;;;;;5033865;28;20418;-62
2022/07/25 14:07:44;;;;;;;16.83;2.80;;;;;;;;;;5030326;28;20565;-63
2022/07/25 14:10:11;;;;;;;10.75;2.53;;;;;;;;;;5050438;28;20176;-61
2022/07/25 14:12:38;;;;;;;14.98;2.90;;;;;;;;;;5036040;28;20191;-62
2022/07/25 14:15:05;;;;;;;15.65;2.92;;;;;;;;;;5047560;28;20278;-61
2022/07/25 14:17:32;;;;;;;18.75;3.40;;;;;;;;;;5035241;28;20226;-62
2022/07/25 14:19:58;;;;;;;18.02;2.78;;;;;;;;;;5033553;28;20177;-62
2022/07/25 14:22:25;;;;;;;17.05;2.90;;;;;;;;;;5033543;28;20239;-62
2022/07/25 14:24:51;;;;;;;18.15;2.70;;;;;;;;;;5033834;28;20482;-62
2022/07/25 14:27:17;;;;;;;20.77;3.78;;;;;;;;;;5034883;28;20243;-62
2022/07/25 14:29:43;;;;;;;19.73;3.05;;;;;;;;;;5033369;28;20176;-61
2022/07/25 14:32:09;;;;;;;12.80;2.85;;;;;;;;;;5035217;28;20184;-61
2022/07/25 14:34:36;;;;;;;13.30;2.85;;;;;;;;;;5031406;28;20476;-62
2022/07/25 14:37:04;;;;;;;11.77;2.42;;;;;;;;;;5030269;28;20281;-63